Overview Statistics Trail Chart Weather Telemetry Raw packets
 

This is the latest recevied weather packets stored in our database for station/object KQ4WWD. If no packets are shown the sender has not sent any weather packets the latest 10 day(s).

<< 90 91 92 93 94 95 96 >>
Time Temp. Humidity Pressure Rain* Wind** Luminosity Snow
1787935081 25.56° C 90% 1018.2 hPa 1.78 mm - 135 W/m² -
1787934775 26.11° C 89% 1017.9 hPa 4.83 mm - 126 W/m² -
1787934474 26.67° C 88% 1017.7 hPa 3.05 mm - 107 W/m² -
1787934169 28.89° C 84% 1017.8 hPa 1.78 mm - 75 W/m² -
1787933869 30.56° C 78% 1017.5 hPa 0 mm - 56 W/m² -
1787933563 31.11° C 77% 1017.5 hPa 0 mm - 121 W/m² -
1787933258 31.11° C 76% 1017.5 hPa 0 mm - 153 W/m² -
1787932957 32.78° C 73% 1017.4 hPa 0 mm - 218 W/m² -
1787932656 32.22° C 74% 1017.4 hPa 0 mm - 327 W/m² -
1787932356 31.67° C 74% 1017.4 hPa 0 mm - 825 W/m² -
1787932057 31.67° C 77% 1017.5 hPa 0 mm - 177 W/m² -
1787931756 31.67° C 78% 1017.5 hPa 0 mm - 808 W/m² -
1787931455 31.67° C 77% 1017.7 hPa 0 mm - 201 W/m² -
1787931150 31.67° C 76% 1017.9 hPa 0 mm - 230 W/m² -
1787930850 31.11° C 77% 1017.7 hPa 0 mm - 817 W/m² -
1787930550 30.56° C 80% 1017.8 hPa 0 mm - 775 W/m² -
1787930245 30° C 81% 1017.8 hPa 0 mm - 116 W/m² -
1787929944 30° C 83% 1017.8 hPa 0 mm - 801 W/m² -
1787929643 30° C 82% 1017.8 hPa 0 mm - 97 W/m² -
1787929338 30.56° C 80% 1017.6 hPa 0 mm - 107 W/m² -
1787929036 31.11° C 80% 1017.6 hPa 0 mm - 116 W/m² -
1787928732 31.11° C 78% 1017.8 hPa 0 mm - 699 W/m² -
1787928429 31.11° C 78% 1017.8 hPa 0 mm - 206 W/m² -
1787928129 32.22° C 76% 1017.7 hPa 0 mm - 858 W/m² -
1787927829 31.67° C 78% 1017.8 hPa 0 mm - 768 W/m² -

* Rain latest hour (hover to see other rain measurements)
** Current wind speed in m/s (hover to see current wind gust speed)